Time;durP1;ratioP1;P1;durP2;ratioP2;P2;SDS_P1;SDS_P2;PMS_P1;PMS_P2;Temp;Humidity;BMP_temperature;BMP_pressure;BME280_temperature;BME280_humidity;BME280_pressure;Samples;Min_cycle;Max_cycle;Signal;HPM_P1;HPM_P2
2021/03/11 00:00:35;;;;;;;16.83;9.03;;;;;;;0.21;100.00;95592.75;5091840;28;20279;-65
2021/03/11 00:03:03;;;;;;;10.13;7.27;;;;;;;0.18;100.00;95597.56;5091290;28;20224;-65
2021/03/11 00:05:30;;;;;;;11.80;7.67;;;;;;;0.16;100.00;95594.44;5091694;28;20192;-64
2021/03/11 00:07:57;;;;;;;12.17;7.97;;;;;;;0.14;100.00;95592.13;5090981;28;20618;-65
2021/03/11 00:10:24;;;;;;;11.07;7.73;;;;;;;0.10;100.00;95600.47;5091196;28;20204;-64
2021/03/11 00:12:51;;;;;;;14.10;7.60;;;;;;;0.08;100.00;95603.25;5090928;28;20287;-65
2021/03/11 00:15:22;;;;;;;15.70;8.33;;;;;;;0.09;100.00;95601.47;5090933;28;20227;-64
2021/03/11 00:17:49;;;;;;;12.57;7.77;;;;;;;-0.01;100.00;95595.16;5091231;28;20232;-65
2021/03/11 00:20:17;;;;;;;13.73;7.30;;;;;;;-0.12;100.00;95603.59;5091189;28;20229;-64
2021/03/11 00:22:45;;;;;;;12.67;7.37;;;;;;;-0.09;100.00;95599.81;5091062;28;20275;-65
2021/03/11 00:25:14;;;;;;;14.93;8.27;;;;;;;-0.07;100.00;95610.59;5090854;28;20231;-64
2021/03/11 00:27:41;;;;;;;19.70;11.30;;;;;;;-0.28;100.00;95613.69;5090789;28;20194;-65
2021/03/11 00:30:10;;;;;;;21.80;10.90;;;;;;;-0.21;100.00;95610.03;5090816;28;20235;-64
2021/03/11 00:32:39;;;;;;;14.73;9.20;;;;;;;-0.30;100.00;95615.72;5090741;28;20188;-65
2021/03/11 00:35:07;;;;;;;14.80;8.80;;;;;;;-0.20;100.00;95613.38;5091019;28;20663;-64
2021/03/11 00:37:34;;;;;;;13.90;9.03;;;;;;;-0.17;100.00;95613.69;5090620;28;20195;-64
2021/03/11 00:40:01;;;;;;;16.37;9.50;;;;;;;-0.13;100.00;95616.56;5090775;28;20301;-64
2021/03/11 00:42:28;;;;;;;20.47;10.40;;;;;;;-0.11;100.00;95610.25;5090613;28;20334;-65
2021/03/11 00:44:55;;;;;;;17.10;9.63;;;;;;;-0.03;100.00;95607.34;5090760;28;20706;-65
2021/03/11 00:47:23;;;;;;;19.57;10.87;;;;;;;-0.02;100.00;95605.59;5089678;28;20584;-65
2021/03/11 00:49:50;;;;;;;17.67;10.77;;;;;;;-0.08;100.00;95606.47;5090365;28;20266;-65
2021/03/11 00:52:17;;;;;;;14.30;9.93;;;;;;;-0.04;100.00;95605.00;5090446;28;20329;-65
2021/03/11 00:54:44;;;;;;;33.00;16.37;;;;;;;-0.03;100.00;95609.91;5090403;28;20661;-65
2021/03/11 00:57:11;;;;;;;27.67;14.47;;;;;;;-0.11;100.00;95602.59;5090453;28;20234;-64
2021/03/11 00:59:38;;;;;;;29.50;14.97;;;;;;;-0.05;100.00;95604.25;5090450;28;20223;-65
2021/03/11 01:02:05;;;;;;;29.77;14.50;;;;;;;-0.04;100.00;95605.81;5090040;28;20263;-64
2021/03/11 01:04:32;;;;;;;24.03;14.83;;;;;;;0.03;100.00;95597.25;5090499;28;20204;-64
2021/03/11 01:07:00;;;;;;;25.10;14.90;;;;;;;0.00;100.00;95608.69;5090086;28;20224;-64
2021/03/11 01:09:27;;;;;;;27.53;13.87;;;;;;;-0.05;100.00;95614.44;5090214;28;20680;-64
2021/03/11 01:11:56;;;;;;;22.80;13.93;;;;;;;-0.07;100.00;95610.59;5090679;28;20215;-65
2021/03/11 01:14:25;;;;;;;32.50;15.13;;;;;;;-0.05;100.00;95614.44;5090361;28;20226;-63
2021/03/11 01:16:52;;;;;;;30.43;15.10;;;;;;;-0.08;100.00;95609.81;5090095;28;20278;-64
2021/03/11 01:19:20;;;;;;;22.27;13.67;;;;;;;-0.10;100.00;95611.03;5090111;28;20741;-64
2021/03/11 01:21:47;;;;;;;22.70;14.40;;;;;;;-0.13;100.00;95604.59;5090192;28;20296;-64
2021/03/11 01:24:15;;;;;;;22.07;13.20;;;;;;;-0.03;100.00;95596.34;5090315;28;20275;-64
2021/03/11 01:26:42;;;;;;;18.40;12.53;;;;;;;-0.02;100.00;95603.81;5090261;28;20195;-64
2021/03/11 01:29:09;;;;;;;21.20;13.30;;;;;;;0.05;100.00;95597.81;5089968;28;20314;-64
2021/03/11 01:31:36;;;;;;;23.83;14.30;;;;;;;0.05;100.00;95596.00;5089981;28;20276;-64
2021/03/11 01:34:03;;;;;;;19.73;12.27;;;;;;;-0.06;100.00;95591.72;5090024;28;20282;-64
2021/03/11 01:36:30;;;;;;;21.73;12.67;;;;;;;-0.02;100.00;95593.59;5090101;28;20257;-64
2021/03/11 01:38:57;;;;;;;19.40;13.40;;;;;;;-0.11;100.00;95600.06;5089985;28;20220;-64
2021/03/11 01:41:25;;;;;;;26.27;16.57;;;;;;;-0.02;100.00;95608.91;5090319;28;20228;-64
2021/03/11 01:43:54;;;;;;;19.63;12.80;;;;;;;-0.14;100.00;95609.91;5089786;28;20283;-64
2021/03/11 01:46:23;;;;;;;16.20;11.33;;;;;;;-0.05;100.00;95608.59;5089980;28;20754;-64
2021/03/11 01:48:50;;;;;;;16.77;11.30;;;;;;;-0.04;100.00;95610.91;5089788;28;20225;-64
2021/03/11 01:51:19;;;;;;;16.90;11.63;;;;;;;-0.07;100.00;95616.47;5090177;28;20194;-64
2021/03/11 01:53:46;;;;;;;18.00;10.37;;;;;;;-0.06;100.00;95619.81;5090216;28;20287;-64
2021/03/11 01:56:13;;;;;;;20.53;10.87;;;;;;;-0.09;100.00;95626.13;5090062;28;20215;-64
2021/03/11 01:58:41;;;;;;;19.97;11.67;;;;;;;-0.02;100.00;95624.25;5092908;28;20265;-63
2021/03/11 02:01:08;;;;;;;18.47;11.80;;;;;;;0.01;100.00;95612.78;5093636;28;20290;-64
2021/03/11 02:03:35;;;;;;;18.07;11.10;;;;;;;0.08;100.00;95610.91;5093510;28;20672;-64
2021/03/11 02:06:02;;;;;;;17.23;11.17;;;;;;;0.02;100.00;95618.69;5093774;28;20234;-64
2021/03/11 02:08:30;;;;;;;14.77;10.10;;;;;;;-0.11;100.00;95610.25;5093679;28;20754;-64
2021/03/11 02:10:57;;;;;;;14.90;10.83;;;;;;;-0.10;100.00;95606.69;5093436;28;20675;-64
2021/03/11 02:13:34;;;;;;;25.77;14.03;;;;;;;-0.04;100.00;95613.47;5093631;28;20200;-64
2021/03/11 02:16:16;;;;;;;21.07;12.87;;;;;;;-0.07;100.00;95611.38;5093490;28;20204;-64
2021/03/11 02:18:48;;;;;;;16.20;10.50;;;;;;;-0.02;100.00;95614.03;5093401;28;20262;-65
2021/03/11 02:21:21;;;;;;;16.60;11.03;;;;;;;-0.03;100.00;95621.91;5093506;28;20237;-63
2021/03/11 02:24:39;;;;;;;16.83;10.53;;;;;;;-0.01;100.00;95628.34;5093360;28;20188;-64
2021/03/11 02:27:42;;;;;;;20.93;10.87;;;;;;;-0.10;100.00;95622.00;5093260;28;20201;-64
2021/03/11 02:30:11;;;;;;;57.47;21.53;;;;;;;-0.18;100.00;95631.78;5092911;28;20206;-64
2021/03/11 02:32:41;;;;;;;21.83;12.17;;;;;;;-0.16;100.00;95628.03;5093527;28;20196;-64
2021/03/11 02:35:09;;;;;;;21.60;11.83;;;;;;;0.03;100.00;95622.78;5092932;28;20227;-64
2021/03/11 02:37:40;;;;;;;29.80;14.50;;;;;;;0.03;100.00;95630.44;5092999;28;20677;-64
2021/03/11 02:40:11;;;;;;;21.17;12.07;;;;;;;-0.05;100.00;95632.34;5093189;28;20200;-64
2021/03/11 02:42:40;;;;;;;20.53;12.07;;;;;;;-0.17;100.00;95641.00;5093078;28;20638;-64
2021/03/11 02:45:13;;;;;;;20.03;12.67;;;;;;;-0.12;100.00;95644.44;5092648;28;20707;-64
2021/03/11 02:47:42;;;;;;;21.17;13.60;;;;;;;-0.15;100.00;95642.31;5093079;28;20329;-62
2021/03/11 02:50:10;;;;;;;16.30;10.90;;;;;;;-0.22;100.00;95646.78;5093070;28;20247;-64
2021/03/11 02:52:37;;;;;;;18.57;11.77;;;;;;;-0.17;100.00;95648.66;5092696;28;20581;-65
2021/03/11 02:55:07;;;;;;;18.33;10.67;;;;;;;-0.16;100.00;95653.56;5092549;28;20231;-65
2021/03/11 02:57:37;;;;;;;35.80;15.07;;;;;;;-0.16;100.00;95653.56;5092682;28;20201;-64
2021/03/11 03:00:07;;;;;;;45.43;16.60;;;;;;;-0.15;100.00;95670.41;5092644;28;20286;-65
2021/03/11 03:02:36;;;;;;;31.27;15.47;;;;;;;-0.16;100.00;95671.44;5092543;28;20792;-65
2021/03/11 03:05:05;;;;;;;19.33;11.77;;;;;;;-0.14;100.00;95669.41;5092422;28;20682;-63
2021/03/11 03:07:33;;;;;;;20.83;12.30;;;;;;;-0.08;100.00;95675.44;5092434;28;20622;-65
2021/03/11 03:10:01;;;;;;;18.87;11.90;;;;;;;-0.12;100.00;95679.44;5091202;28;20319;-65
2021/03/11 03:12:28;;;;;;;18.97;12.13;;;;;;;-0.07;100.00;95682.88;5092308;28;20232;-64
2021/03/11 03:14:55;;;;;;;23.93;13.20;;;;;;;-0.14;100.00;95677.09;5092752;28;20188;-66
2021/03/11 03:17:23;;;;;;;24.67;13.37;;;;;;;-0.07;100.00;95677.75;5092738;28;20225;-65
2021/03/11 03:19:51;;;;;;;23.20;12.60;;;;;;;-0.13;100.00;95678.66;5092316;28;20773;-65
2021/03/11 03:22:19;;;;;;;24.57;14.17;;;;;;;-0.16;100.00;95686.75;5092068;28;20234;-64
2021/03/11 03:24:48;;;;;;;10.37;6.60;;;;;;;-0.06;98.89;95681.88;5092055;28;20299;-65
2021/03/11 03:27:17;;;;;;;5.47;4.10;;;;;;;0.11;94.42;95691.41;5092228;28;20304;-64
2021/03/11 03:29:45;;;;;;;3.53;2.50;;;;;;;0.04;92.24;95693.31;5091874;28;20230;-64
2021/03/11 03:32:12;;;;;;;2.43;1.83;;;;;;;0.05;91.71;95698.19;5092262;28;20246;-64
2021/03/11 03:34:39;;;;;;;1.60;1.37;;;;;;;0.12;90.73;95693.75;5092267;28;20211;-65
2021/03/11 03:37:07;;;;;;;1.10;1.00;;;;;;;0.03;89.22;95695.09;5091749;28;20227;-64
2021/03/11 03:39:35;;;;;;;1.17;1.03;;;;;;;0.11;88.58;95699.06;5092044;28;20196;-64
2021/03/11 03:42:06;;;;;;;1.00;0.90;;;;;;;0.05;87.08;95699.97;5091679;28;20278;-64
2021/03/11 03:44:37;;;;;;;4.40;3.13;;;;;;;-0.07;92.31;95694.88;5091764;28;20318;-64
2021/03/11 03:47:11;;;;;;;8.87;5.50;;;;;;;0.06;93.66;95692.06;5091781;28;20242;-64
2021/03/11 03:49:40;;;;;;;2.40;1.90;;;;;;;-0.11;90.89;95701.41;5091454;28;20231;-64
2021/03/11 03:52:10;;;;;;;0.87;0.80;;;;;;;-0.15;88.42;95701.06;5091541;28;20275;-64
2021/03/11 03:54:40;;;;;;;0.90;0.90;;;;;;;-0.16;88.69;95703.84;5091499;28;20283;-64
2021/03/11 03:57:13;;;;;;;0.83;0.80;;;;;;;-0.14;87.24;95696.72;5091792;28;20655;-64
2021/03/11 03:59:42;;;;;;;0.67;0.67;;;;;;;-0.17;88.35;95703.06;5091506;28;20314;-64
2021/03/11 04:02:12;;;;;;;1.00;0.90;;;;;;;-0.18;88.62;95706.63;5091096;28;20314;-64
2021/03/11 04:04:42;;;;;;;1.43;1.00;;;;;;;-0.22;87.62;95705.50;5091361;28;20282;-64
2021/03/11 04:07:13;;;;;;;1.20;1.00;;;;;;;-0.19;88.96;95706.81;5091757;28;20286;-64
2021/03/11 04:09:41;;;;;;;0.90;0.90;;;;;;;-0.25;90.30;95707.72;5091185;28;20227;-64
2021/03/11 04:12:10;;;;;;;14.90;8.60;;;;;;;-0.39;90.73;95704.56;5091374;28;20207;-64
2021/03/11 04:14:38;;;;;;;63.67;31.53;;;;;;;-0.28;90.01;95710.72;5091080;28;20722;-64
2021/03/11 04:17:06;;;;;;;5.80;4.43;;;;;;;-0.32;89.42;95705.28;5091198;28;20234;-63
2021/03/11 04:19:36;;;;;;;1.70;1.60;;;;;;;-0.35;88.43;95715.94;5091453;28;20286;-63
2021/03/11 04:22:03;;;;;;;4.83;4.33;;;;;;;-0.21;88.84;95716.50;5090831;28;20238;-65
2021/03/11 04:24:35;;;;;;;4.87;3.10;;;;;;;-0.32;89.64;95722.34;5091045;28;20188;-64
2021/03/11 04:27:05;;;;;;;1.30;1.20;;;;;;;-0.39;87.92;95725.00;5090836;28;20277;-63
2021/03/11 04:29:32;;;;;;;1.60;1.50;;;;;;;-0.44;89.30;95714.66;5090971;28;20238;-63
2021/03/11 04:32:01;;;;;;;3.47;1.97;;;;;;;-0.42;89.95;95730.56;5090802;28;20697;-64
2021/03/11 04:34:28;;;;;;;1.10;1.00;;;;;;;-0.39;88.62;95730.09;5090707;28;20827;-62
2021/03/11 04:36:56;;;;;;;1.50;1.13;;;;;;;-0.41;90.02;95732.13;5090638;28;20286;-64
2021/03/11 04:39:25;;;;;;;1.30;1.20;;;;;;;-0.37;90.42;95743.44;5090685;28;20200;-64
2021/03/11 04:41:54;;;;;;;1.40;1.27;;;;;;;-0.37;89.85;95735.78;5091065;28;20200;-64
2021/03/11 04:44:23;;;;;;;1.50;1.40;;;;;;;-0.45;90.13;95748.88;5090548;28;20219;-63
2021/03/11 04:46:51;;;;;;;1.50;1.30;;;;;;;-0.45;89.96;95741.97;5090571;28;20234;-62
2021/03/11 04:49:19;;;;;;;2.00;1.60;;;;;;;-0.36;90.50;95745.00;5090496;28;20320;-64
2021/03/11 04:51:47;;;;;;;2.17;1.33;;;;;;;-0.38;90.23;95744.44;5090434;28;20202;-63
2021/03/11 04:54:15;;;;;;;1.93;1.73;;;;;;;-0.40;91.13;95749.00;5090357;28;20195;-62
2021/03/11 04:56:42;;;;;;;2.93;1.53;;;;;;;-0.34;89.97;95745.53;5090519;28;20746;-62
2021/03/11 04:59:11;;;;;;;1.67;1.40;;;;;;;-0.37;90.77;95752.88;5090385;28;20285;-65
2021/03/11 05:01:41;;;;;;;2.30;2.00;;;;;;;-0.28;90.27;95759.22;5090516;28;20235;-63
2021/03/11 05:04:09;;;;;;;3.10;1.87;;;;;;;-0.30;89.46;95763.78;5090282;28;21099;-64
2021/03/11 05:06:36;;;;;;;1.43;1.33;;;;;;;-0.30;89.48;95763.78;5090196;28;20235;-64
2021/03/11 05:09:04;;;;;;;2.63;1.83;;;;;;;-0.27;89.56;95764.09;5090015;28;20230;-64
2021/03/11 05:11:31;;;;;;;1.93;1.40;;;;;;;-0.24;89.90;95763.66;5090204;28;20231;-64
2021/03/11 05:13:58;;;;;;;2.63;1.70;;;;;;;-0.22;89.73;95759.13;5090094;28;20249;-64
2021/03/11 05:16:25;;;;;;;2.20;1.80;;;;;;;-0.24;90.04;95768.00;5090074;28;20199;-63
2021/03/11 05:18:52;;;;;;;2.53;1.60;;;;;;;-0.35;90.30;95769.53;5090109;28;20199;-64
2021/03/11 05:21:20;;;;;;;2.57;1.87;;;;;;;-0.27;90.92;95756.44;5090304;28;20195;-63
2021/03/11 05:23:48;;;;;;;2.93;2.20;;;;;;;-0.20;91.13;95767.31;5090208;28;20196;-64
2021/03/11 05:26:15;;;;;;;1.90;1.50;;;;;;;-0.04;90.27;95766.69;5090218;28;20223;-64
2021/03/11 05:28:42;;;;;;;1.80;1.33;;;;;;;-0.02;89.89;95772.38;5090082;28;20705;-63
2021/03/11 05:31:09;;;;;;;1.53;1.23;;;;;;;0.05;89.20;95779.94;5090543;28;20187;-64
2021/03/11 05:33:37;;;;;;;2.43;1.77;;;;;;;0.00;89.73;95780.59;5093320;28;20578;-64
2021/03/11 05:36:05;;;;;;;21.27;6.50;;;;;;;0.08;88.99;95782.06;5094028;28;20823;-63
2021/03/11 05:38:32;;;;;;;21.07;6.70;;;;;;;0.07;89.19;95775.38;5094007;28;20659;-64
2021/03/11 05:40:59;;;;;;;9.33;3.33;;;;;;;0.14;88.54;95777.84;5093934;28;20753;-63
2021/03/11 05:43:28;;;;;;;15.87;4.50;;;;;;;0.19;88.06;95788.19;5093899;28;20598;-63
2021/03/11 05:45:55;;;;;;;6.27;2.80;;;;;;;0.17;87.82;95797.84;5093670;28;20294;-63
2021/03/11 05:48:26;;;;;;;27.60;12.50;;;;;;;0.22;88.54;95797.94;5093764;28;20437;-63
2021/03/11 05:50:54;;;;;;;21.57;12.30;;;;;;;0.22;87.05;95805.63;5093696;28;20293;-63
2021/03/11 05:53:22;;;;;;;67.80;28.90;;;;;;;0.22;87.50;95808.16;5093923;28;20273;-63
2021/03/11 05:55:50;;;;;;;29.17;12.50;;;;;;;0.11;88.08;95811.47;5093654;28;20204;-63
2021/03/11 05:58:19;;;;;;;31.23;12.03;;;;;;;0.10;89.64;95817.63;5093771;28;20202;-64
2021/03/11 06:00:46;;;;;;;7.30;4.00;;;;;;;0.11;88.16;95812.25;5093223;28;20226;-64
2021/03/11 06:03:13;;;;;;;272.20;74.93;;;;;;;0.07;88.51;95810.38;5093576;28;20239;-63
2021/03/11 06:05:41;;;;;;;75.97;30.37;;;;;;;0.09;88.28;95821.94;5093311;28;20677;-63
2021/03/11 06:08:10;;;;;;;11.53;7.03;;;;;;;0.09;89.36;95828.81;5093450;28;20250;-63
2021/03/11 06:10:41;;;;;;;16.53;5.73;;;;;;;0.17;88.17;95836.16;5093270;28;20279;-63
2021/03/11 06:13:11;;;;;;;71.07;30.47;;;;;;;0.11;88.47;95845.47;5093103;28;20267;-64
2021/03/11 06:15:40;;;;;;;76.93;33.00;;;;;;;0.17;89.67;95842.03;5093417;28;20206;-63
2021/03/11 06:18:08;;;;;;;26.37;9.53;;;;;;;0.20;88.95;95848.50;5093023;28;20219;-63
2021/03/11 06:20:36;;;;;;;17.90;7.20;;;;;;;0.24;90.05;95862.41;5092838;28;20189;-63
2021/03/11 06:23:03;;;;;;;10.07;3.97;;;;;;;0.32;88.77;95869.75;5092937;28;20249;-63
2021/03/11 06:25:31;;;;;;;20.77;6.60;;;;;;;0.26;89.40;95878.28;5092938;28;20228;-63
2021/03/11 06:27:58;;;;;;;24.87;7.53;;;;;;;0.42;89.85;95878.44;5092747;28;20284;-63
2021/03/11 06:30:33;;;;;;;25.97;7.37;;;;;;;0.58;87.82;95883.91;5092576;28;20227;-63
2021/03/11 06:33:01;;;;;;;21.60;6.00;;;;;;;0.62;87.45;95895.25;5092727;28;20188;-63
2021/03/11 06:35:28;;;;;;;5.23;2.10;;;;;;;0.41;87.81;95899.88;5093050;28;20196;-64
2021/03/11 06:37:55;;;;;;;9.53;4.10;;;;;;;0.59;85.60;95899.03;5092531;28;20632;-64
2021/03/11 06:40:24;;;;;;;32.87;8.20;;;;;;;0.42;85.92;95900.66;5092575;28;20231;-63
2021/03/11 06:42:53;;;;;;;29.30;9.17;;;;;;;0.53;86.06;95905.03;5092887;28;20215;-62
2021/03/11 06:45:22;;;;;;;31.57;9.93;;;;;;;0.73;85.44;95915.72;5091278;28;20251;-63
2021/03/11 06:47:50;;;;;;;21.60;7.87;;;;;;;0.74;84.89;95922.41;5092773;28;20192;-63
2021/03/11 06:50:17;;;;;;;32.33;10.73;;;;;;;0.82;83.80;95927.19;5092258;28;20227;-64
2021/03/11 06:53:01;;;;;;;9.80;2.97;;;;;;;0.78;84.70;95932.97;5092343;28;20249;-64
2021/03/11 06:55:28;;;;;;;20.80;6.80;;;;;;;0.72;85.29;95932.06;5092440;28;20284;-65
2021/03/11 06:57:56;;;;;;;9.10;3.87;;;;;;;0.76;83.85;95928.06;5092427;28;20191;-64
2021/03/11 07:00:24;;;;;;;13.63;5.07;;;;;;;0.72;84.04;95929.50;5092183;28;20279;-64
2021/03/11 07:02:52;;;;;;;6.30;3.07;;;;;;;0.89;85.26;95926.31;5091823;28;20314;-64
2021/03/11 07:05:21;;;;;;;15.70;6.07;;;;;;;0.97;83.25;95925.97;5092119;28;20227;-65
2021/03/11 07:07:48;;;;;;;7.20;3.53;;;;;;;1.05;83.27;95935.84;5092118;28;20232;-64
2021/03/11 07:10:26;;;;;;;15.60;6.33;;;;;;;1.12;82.74;95931.41;5091991;28;20277;-64
2021/03/11 07:12:55;;;;;;;4.83;2.70;;;;;;;1.23;83.31;95930.66;5091983;28;20202;-63
2021/03/11 07:15:24;;;;;;;9.67;4.10;;;;;;;1.37;83.54;95934.53;5092119;28;20231;-64
2021/03/11 07:17:53;;;;;;;3.67;2.90;;;;;;;1.45;81.97;95946.97;5092148;28;20301;-63
2021/03/11 07:20:20;;;;;;;15.37;5.90;;;;;;;1.50;82.05;95954.75;5092183;28;20198;-64
2021/03/11 07:23:02;;;;;;;5.97;4.10;;;;;;;1.32;82.17;95965.13;5091764;28;20223;-64
2021/03/11 07:25:31;;;;;;;11.10;5.20;;;;;;;1.43;83.28;95964.34;5091973;28;20223;-64
2021/03/11 07:27:58;;;;;;;20.57;8.03;;;;;;;1.39;83.18;95973.50;5091729;28;20232;-64
2021/03/11 07:30:26;;;;;;;8.43;4.20;;;;;;;1.42;82.49;95972.25;5091429;28;20710;-64
2021/03/11 07:33:03;;;;;;;13.13;4.90;;;;;;;1.47;82.10;95980.03;5091805;28;20780;-64
2021/03/11 07:35:32;;;;;;;4.90;3.60;;;;;;;1.45;83.27;95977.69;5091447;28;20210;-64
2021/03/11 07:38:02;;;;;;;8.30;3.63;;;;;;;1.52;83.20;95983.50;5091554;28;20276;-64
2021/03/11 07:40:33;;;;;;;13.23;4.83;;;;;;;1.55;82.11;95985.59;5091583;28;20201;-65
2021/03/11 07:43:00;;;;;;;11.93;4.13;;;;;;;1.66;82.61;95997.63;5091454;28;20196;-64
2021/03/11 07:45:29;;;;;;;15.77;6.63;;;;;;;1.54;82.64;96004.56;5091547;28;20218;-64
2021/03/11 07:47:57;;;;;;;16.93;10.40;;;;;;;1.63;83.03;95997.31;5091650;28;20205;-64
2021/03/11 07:50:24;;;;;;;13.70;8.63;;;;;;;1.73;82.57;96005.19;5091112;28;20314;-63
2021/03/11 07:52:52;;;;;;;17.70;10.40;;;;;;;1.83;82.83;96012.31;5091114;28;20233;-64
2021/03/11 07:55:19;;;;;;;13.87;6.70;;;;;;;1.86;82.33;96016.97;5090916;28;20210;-66
2021/03/11 07:57:47;;;;;;;14.90;6.27;;;;;;;2.03;83.56;96018.63;5091002;28;20199;-64
2021/03/11 08:00:16;;;;;;;10.83;4.17;;;;;;;2.10;83.84;96016.69;5090969;28;20201;-65
2021/03/11 08:02:53;;;;;;;5.70;2.83;;;;;;;2.27;83.28;96019.34;5090856;28;20260;-66
2021/03/11 08:05:30;;;;;;;4.47;3.17;;;;;;;2.46;82.03;96028.41;5091043;28;20194;-64
2021/03/11 08:08:15;;;;;;;7.93;4.60;;;;;;;2.34;80.91;96030.22;5091442;28;20211;-64
2021/03/11 08:10:43;;;;;;;8.20;4.97;;;;;;;2.70;81.55;96030.88;5091098;28;20282;-66
2021/03/11 08:13:34;;;;;;;12.40;4.70;;;;;;;2.93;79.11;96036.69;5090924;28;20279;-65
2021/03/11 08:16:21;;;;;;;4.70;2.87;;;;;;;3.17;79.38;96032.22;5090723;28;20693;-64
2021/03/11 08:18:51;;;;;;;4.40;3.30;;;;;;;3.44;77.85;96034.91;5090943;28;20682;-65
2021/03/11 08:21:45;;;;;;;4.10;2.40;;;;;;;3.46;77.59;96032.91;5090831;28;20196;-65
2021/03/11 08:24:40;;;;;;;2.87;2.30;;;;;;;3.68;78.21;96036.31;5090510;28;20697;-64
2021/03/11 08:27:41;;;;;;;4.07;2.67;;;;;;;3.75;78.03;96038.69;5090525;28;20249;-64
2021/03/11 08:30:24;;;;;;;3.30;2.73;;;;;;;3.49;78.12;96042.69;5085961;28;20223;-65
2021/03/11 08:32:51;;;;;;;3.30;2.40;;;;;;;3.14;80.34;96045.50;5081609;28;20558;-65
2021/03/11 08:35:38;;;;;;;4.27;2.83;;;;;;;3.09;81.63;96049.78;5090778;28;20198;-65
2021/03/11 08:38:46;;;;;;;4.37;3.07;;;;;;;3.44;81.02;96050.31;5090653;28;20219;-65
2021/03/11 08:41:14;;;;;;;5.80;5.20;;;;;;;3.31;78.88;96048.84;5085356;28;20678;-65
2021/03/11 08:43:51;;;;;;;4.53;3.40;;;;;;;3.61;79.03;96052.88;5090468;28;20192;-66
2021/03/11 08:46:20;;;;;;;6.70;3.87;;;;;;;3.74;77.07;96053.34;5090305;28;20206;-65
2021/03/11 08:48:49;;;;;;;4.40;3.10;;;;;;;3.94;75.39;96052.84;5090255;28;20227;-65
2021/03/11 08:51:39;;;;;;;2.33;1.87;;;;;;;3.70;71.57;96056.63;5090294;28;20667;-66
2021/03/11 08:54:08;;;;;;;3.60;2.60;;;;;;;3.04;74.13;96061.50;5090775;28;20200;-64
2021/03/11 08:56:45;;;;;;;7.07;3.30;;;;;;;2.75;75.09;96059.19;5090134;28;20206;-65
2021/03/11 08:59:14;;;;;;;6.60;4.27;;;;;;;2.36;77.09;96064.13;5090268;28;20202;-64
2021/03/11 09:01:43;;;;;;;9.20;5.47;;;;;;;2.53;78.73;96051.38;5090181;28;20224;-66
2021/03/11 09:04:40;;;;;;;7.93;5.10;;;;;;;2.57;77.52;96065.28;5089921;28;20280;-63
2021/03/11 09:07:11;;;;;;;4.83;3.10;;;;;;;2.25;76.91;96072.63;5089564;28;20191;-66
2021/03/11 09:09:42;;;;;;;5.33;3.73;;;;;;;2.31;77.04;96068.38;5089897;28;20222;-64
2021/03/11 09:12:10;;;;;;;4.83;3.17;;;;;;;2.37;77.73;96075.16;5089880;28;20603;-64
2021/03/11 09:14:37;;;;;;;4.40;3.53;;;;;;;2.39;79.37;96079.06;5089907;28;20188;-65
2021/03/11 09:17:07;;;;;;;8.17;5.23;;;;;;;2.44;80.55;96079.16;5090132;28;20231;-65
2021/03/11 09:19:38;;;;;;;6.67;4.70;;;;;;;2.64;81.63;96085.69;5090189;28;20200;-65
2021/03/11 09:22:28;;;;;;;4.77;3.83;;;;;;;2.92;76.88;96098.53;5089740;28;20331;-66
2021/03/11 09:25:06;;;;;;;7.40;4.50;;;;;;;2.96;75.17;96094.47;5089781;28;20643;-69
2021/03/11 09:27:34;;;;;;;5.60;3.93;;;;;;;3.10;75.25;96103.44;5090017;28;20195;-65
2021/03/11 09:30:04;;;;;;;16.07;6.77;;;;;;;3.13;75.65;96099.66;5089579;28;20317;-62
2021/03/11 09:32:32;;;;;;;17.70;10.30;;;;;;;3.30;76.06;96097.88;5089631;28;20222;-63
2021/03/11 09:35:01;;;;;;;6.93;4.57;;;;;;;3.50;73.69;96092.28;5089486;28;20219;-63
2021/03/11 09:37:49;;;;;;;11.50;6.40;;;;;;;3.44;72.72;96096.56;5089656;28;20235;-63
2021/03/11 09:40:24;;;;;;;8.07;5.03;;;;;;;3.03;74.86;96098.47;5089794;28;20187;-64
2021/03/11 09:43:09;;;;;;;7.27;4.43;;;;;;;2.99;75.22;96096.56;5089713;28;20722;-63
2021/03/11 09:45:40;;;;;;;5.00;3.57;;;;;;;3.00;75.88;96093.78;5089359;28;20219;-63
2021/03/11 09:48:09;;;;;;;13.40;7.40;;;;;;;3.11;76.68;96092.19;5089693;28;20673;-63
2021/03/11 09:50:38;;;;;;;6.50;5.03;;;;;;;3.01;76.03;96086.88;5089620;28;20259;-62
2021/03/11 09:53:06;;;;;;;107.57;39.20;;;;;;;2.87;78.32;96101.78;5089732;28;20690;-63
2021/03/11 09:55:33;;;;;;;114.13;38.70;;;;;;;2.90;78.26;96101.31;5089325;28;20279;-63
2021/03/11 09:58:00;;;;;;;36.47;14.63;;;;;;;3.05;76.45;96103.38;5089459;28;20666;-63
2021/03/11 10:00:27;;;;;;;29.90;16.03;;;;;;;3.10;77.64;96103.44;5089931;28;20555;-62
2021/03/11 10:02:55;;;;;;;145.43;45.40;;;;;;;2.91;75.24;96112.34;5089249;28;20636;-63
2021/03/11 10:05:22;;;;;;;71.57;25.90;;;;;;;2.89;77.61;96114.41;5089666;28;20282;-64
2021/03/11 10:07:56;;;;;;;59.03;18.17;;;;;;;2.92;77.77;96111.34;5089642;28;20195;-63
2021/03/11 10:10:27;;;;;;;114.37;33.07;;;;;;;2.95;78.20;96118.59;5089401;28;20262;-63
2021/03/11 10:12:54;;;;;;;165.20;47.70;;;;;;;2.62;80.42;96121.06;5089468;28;20196;-62
2021/03/11 10:15:21;;;;;;;12.67;6.03;;;;;;;2.82;77.99;96126.56;5089552;28;20285;-64
2021/03/11 10:17:48;;;;;;;101.10;29.77;;;;;;;2.48;79.18;96115.41;5089657;28;20647;-63
2021/03/11 10:20:26;;;;;;;23.83;8.77;;;;;;;2.55;77.04;96131.44;5093705;28;20205;-63
2021/03/11 10:23:08;;;;;;;8.03;4.60;;;;;;;2.35;78.40;96134.38;5093274;28;20218;-63
2021/03/11 10:25:36;;;;;;;6.17;4.20;;;;;;;2.37;78.22;96147.75;5093632;28;20264;-63
2021/03/11 10:28:04;;;;;;;5.70;4.13;;;;;;;2.43;78.35;96152.00;5093505;28;20210;-63
2021/03/11 10:30:31;;;;;;;18.03;7.70;;;;;;;2.47;79.22;96145.41;5093143;28;20277;-63
2021/03/11 10:32:59;;;;;;;66.17;22.47;;;;;;;2.72;81.59;96147.69;5093139;28;20744;-63
2021/03/11 10:35:29;;;;;;;43.70;17.37;;;;;;;2.75;77.06;96164.41;5093075;28;20227;-62
2021/03/11 10:38:03;;;;;;;327.53;89.00;;;;;;;2.88;77.28;96166.72;5092884;28;20214;-63
2021/03/11 10:40:29;;;;;;;432.67;146.57;;;;;;;3.01;77.32;96171.59;5093336;28;20203;-65
2021/03/11 10:42:58;;;;;;;290.87;85.53;;;;;;;2.96;76.46;96172.28;5093141;28;20708;-63
2021/03/11 10:45:27;;;;;;;361.17;110.70;;;;;;;2.65;76.03;96177.03;5092879;28;20223;-62
2021/03/11 10:48:07;;;;;;;176.50;62.40;;;;;;;2.78;77.22;96175.00;5092999;28;20217;-61
2021/03/11 10:50:38;;;;;;;31.67;15.13;;;;;;;2.90;75.99;96180.09;5092845;28;20273;-62
2021/03/11 10:53:05;;;;;;;9.40;7.60;;;;;;;2.61;76.97;96174.13;5093349;28;20252;-62
2021/03/11 10:55:34;;;;;;;25.93;9.50;;;;;;;2.78;75.40;96172.44;5092724;28;20730;-63
2021/03/11 10:58:03;;;;;;;20.03;15.57;;;;;;;2.97;76.57;96171.28;5092781;28;20237;-62
2021/03/11 11:00:32;;;;;;;10.67;6.67;;;;;;;3.07;75.94;96175.81;5092641;28;20195;-63
2021/03/11 11:03:02;;;;;;;146.37;46.60;;;;;;;3.19;76.26;96168.81;5092299;28;20717;-60
2021/03/11 11:05:29;;;;;;;87.93;27.17;;;;;;;3.46;74.63;96169.84;5092600;28;20302;-62
2021/03/11 11:07:57;;;;;;;63.53;21.07;;;;;;;3.57;72.38;96170.78;5092434;28;20302;-62
2021/03/11 11:10:26;;;;;;;51.23;13.53;;;;;;;3.65;72.39;96172.19;5092199;28;20231;-62
2021/03/11 11:12:53;;;;;;;92.07;31.17;;;;;;;3.72;74.00;96171.03;5092187;28;20709;-61
2021/03/11 11:15:21;;;;;;;16.77;6.73;;;;;;;3.81;72.22;96168.84;5091932;28;20191;-62
2021/03/11 11:17:48;;;;;;;20.37;8.80;;;;;;;3.88;71.74;96159.97;5092354;28;20188;-64
2021/03/11 11:20:17;;;;;;;12.23;7.73;;;;;;;3.79;70.84;96169.06;5092263;28;20309;-63
2021/03/11 11:22:45;;;;;;;181.90;53.50;;;;;;;3.91;73.78;96161.28;5092483;28;20184;-62
2021/03/11 11:25:13;;;;;;;37.17;11.43;;;;;;;3.96;70.53;96173.44;5092014;28;20583;-61
2021/03/11 11:27:40;;;;;;;64.37;21.17;;;;;;;3.99;73.02;96165.25;5092090;28;20238;-62
2021/03/11 11:30:10;;;;;;;11.33;5.23;;;;;;;3.80;70.33;96164.72;5091638;28;20318;-60
2021/03/11 11:32:38;;;;;;;7.47;4.47;;;;;;;3.82;70.72;96157.56;5092135;28;20658;-62
2021/03/11 11:35:06;;;;;;;58.20;24.23;;;;;;;3.86;72.17;96164.56;5092154;28;20653;-62
2021/03/11 11:37:33;;;;;;;54.80;22.10;;;;;;;3.84;71.22;96153.72;5091938;28;20192;-63
2021/03/11 11:40:01;;;;;;;69.83;27.07;;;;;;;3.96;72.31;96153.66;5092058;28;20203;-61